Time;durP1;ratioP1;P1;durP2;ratioP2;P2;SDS_P1;SDS_P2;PMS_P1;PMS_P2;Temp;Humidity;BMP_temperature;BMP_pressure;BME280_temperature;BME280_humidity;BME280_pressure;Samples;Min_cycle;Max_cycle;Signal;HPM_P1;HPM_P2
2022/01/23 00:02:42;;;;;;;8.13;4.40;;;6.30;99.90;;;;;;5064201;28;20075;-64
2022/01/23 00:05:08;;;;;;;10.13;4.28;;;6.30;99.90;;;;;;5077113;28;20052;-64
2022/01/23 00:07:35;;;;;;;9.60;4.15;;;6.40;99.90;;;;;;5077604;28;20036;-63
2022/01/23 00:10:05;;;;;;;10.20;4.50;;;6.30;99.90;;;;;;5076082;28;20127;-63
2022/01/23 00:12:36;;;;;;;10.90;5.10;;;6.40;99.90;;;;;;5055753;28;20045;-64
2022/01/23 00:17:46;;;;;;;7.93;4.38;;;6.20;99.90;;;;;;5038425;28;20124;-64
2022/01/23 00:20:12;;;;;;;8.50;4.63;;;6.40;99.90;;;;;;5036403;28;20065;-64
2022/01/23 00:22:48;;;;;;;9.07;4.35;;;6.40;99.90;;;;;;5035833;28;20045;-63
2022/01/23 00:30:45;;;;;;;14.50;4.87;;;6.30;99.90;;;;;;5035519;28;20495;-64
2022/01/23 00:33:12;;;;;;;12.10;5.03;;;6.40;99.90;;;;;;5037673;28;20045;-64
2022/01/23 00:35:42;;;;;;;9.75;5.43;;;6.30;99.90;;;;;;5018956;28;20045;-64
2022/01/23 00:38:09;;;;;;;5.40;3.85;;;6.40;99.90;;;;;;5035628;28;20041;-63
2022/01/23 00:40:37;;;;;;;10.88;4.55;;;6.40;99.90;;;;;;5035746;28;20091;-64
2022/01/23 00:43:13;;;;;;;6.50;4.22;;;6.30;99.90;;;;;;5035409;28;20119;-63
2022/01/23 00:45:44;;;;;;;7.30;3.90;;;6.30;99.90;;;;;;5018355;28;20095;-64
2022/01/23 00:48:12;;;;;;;12.50;5.20;;;6.30;99.90;;;;;;5051541;28;20063;-64
2022/01/23 00:50:42;;;;;;;10.63;5.40;;;6.20;99.90;;;;;;5036491;28;20404;-64
2022/01/23 00:53:10;;;;;;;9.13;5.30;;;6.30;99.90;;;;;;5035967;28;20536;-63
2022/01/23 00:55:37;;;;;;;8.02;4.50;;;6.30;99.90;;;;;;5034501;28;20059;-63
2022/01/23 00:58:03;;;;;;;7.43;4.32;;;6.10;99.90;;;;;;5036521;28;20044;-64
2022/01/23 01:00:29;;;;;;;11.32;5.47;;;6.30;99.90;;;;;;5051406;28;20037;-63
2022/01/23 01:02:55;;;;;;;10.00;5.20;;;6.40;99.90;;;;;;5035078;28;20103;-64
2022/01/23 01:05:21;;;;;;;10.45;5.05;;;;;;;;;;5034310;28;20049;-64
2022/01/23 01:07:47;;;;;;;10.73;4.82;;;6.30;99.90;;;;;;5036497;28;20064;-64
2022/01/23 01:10:28;;;;;;;12.48;4.97;;;6.40;99.90;;;;;;5035667;28;20037;-64
2022/01/23 01:12:59;;;;;;;7.30;4.05;;;6.30;99.90;;;;;;5058903;28;20041;-63
2022/01/23 01:31:37;;;;;;;11.80;5.50;;;6.30;99.90;;;;;;5057420;28;20489;-63
2022/01/23 01:35:15;;;;;;;10.57;5.70;;;6.40;99.90;;;;;;5057397;28;20040;-63
2022/01/23 01:36:58;;;;;;;12.63;5.60;;;6.30;99.90;;;;;;5070645;28;20037;-63
2022/01/23 01:39:26;;;;;;;11.20;5.32;;;6.20;99.90;;;;;;5057213;28;20074;-63
2022/01/23 01:41:52;;;;;;;10.98;5.78;;;6.30;99.90;;;;;;5058098;28;20059;-64
2022/01/23 01:44:21;;;;;;;12.93;5.53;;;6.30;99.90;;;;;;5056928;28;20048;-64
2022/01/23 01:46:47;;;;;;;11.02;5.13;;;6.30;99.90;;;;;;5057709;28;20051;-63
2022/01/23 01:49:13;;;;;;;12.60;5.18;;;;;;;;;;5057609;28;20033;-63
2022/01/23 01:51:39;;;;;;;12.98;6.25;;;6.30;99.90;;;;;;5046854;28;20041;-64
2022/01/23 01:54:13;;;;;;;11.10;5.47;;;6.30;99.90;;;;;;5053899;28;20170;-63
2022/01/23 01:57:05;;;;;;;12.27;5.20;;;6.30;99.90;;;;;;5055692;28;20112;-63
2022/01/23 02:10:29;;;;;;;11.95;5.07;;;6.30;99.90;;;;;;5041426;28;20061;-63
2022/01/23 02:13:13;;;;;;;13.50;5.97;;;6.50;99.90;;;;;;5041350;28;20045;-63
2022/01/23 02:23:58;;;;;;;10.98;5.90;;;6.30;99.90;;;;;;5038279;28;20041;-63
2022/01/23 02:51:00;;;;;;;10.15;5.85;;;6.20;99.90;;;;;;5045455;28;20482;-63
2022/01/23 02:53:40;;;;;;;9.95;6.28;;;6.20;99.90;;;;;;5060253;28;20238;-63
2022/01/23 02:56:19;;;;;;;10.60;5.75;;;6.10;99.90;;;;;;5060735;28;20572;-63
2022/01/23 02:58:58;;;;;;;14.60;6.03;;;;;;;;;;5061032;28;20080;-63
2022/01/23 03:01:28;;;;;;;11.65;6.78;;;6.20;99.90;;;;;;5059764;28;20479;-64
2022/01/23 03:04:00;;;;;;;11.20;5.28;;;;;;;;;;5060295;28;20033;-63
2022/01/23 03:32:50;;;;;;;8.93;5.53;;;6.10;99.90;;;;;;5080508;28;20044;-63
2022/01/23 03:35:17;;;;;;;7.60;4.47;;;6.10;99.90;;;;;;5079997;28;20035;-63
2022/01/23 03:37:43;;;;;;;7.10;4.95;;;6.00;99.90;;;;;;5098170;28;20105;-63
2022/01/23 03:40:10;;;;;;;6.05;4.30;;;6.10;99.90;;;;;;5080026;28;20047;-63
2022/01/23 03:42:39;;;;;;;7.10;4.50;;;6.20;99.90;;;;;;5079310;28;20485;-63
2022/01/23 03:45:57;;;;;;;6.85;4.78;;;6.00;99.90;;;;;;5079910;28;20096;-63
2022/01/23 03:50:45;;;;;;;7.97;4.40;;;6.20;99.90;;;;;;5074735;28;20517;-63
2022/01/23 03:53:11;;;;;;;7.53;4.53;;;6.10;99.90;;;;;;5057615;28;20041;-63
2022/01/23 03:55:37;;;;;;;7.68;4.43;;;6.10;99.90;;;;;;5072867;28;20040;-63
2022/01/23 03:58:03;;;;;;;6.03;4.28;;;6.10;99.90;;;;;;5057233;28;20178;-63
2022/01/23 04:00:29;;;;;;;6.28;4.15;;;6.00;99.90;;;;;;5057324;28;20110;-63
2022/01/23 04:02:54;;;;;;;8.15;4.30;;;6.10;99.90;;;;;;5073136;28;20036;-63
2022/01/23 04:05:20;;;;;;;8.75;4.55;;;6.10;99.90;;;;;;5072447;28;20047;-63
2022/01/23 04:07:46;;;;;;;6.78;4.50;;;6.10;99.90;;;;;;5072745;28;20048;-63
2022/01/23 04:10:14;;;;;;;6.70;4.55;;;;;;;;;;5056813;28;20037;-64
2022/01/23 04:15:29;;;;;;;6.45;4.70;;;6.10;99.90;;;;;;5056413;28;20037;-63
2022/01/23 04:34:22;;;;;;;4.85;3.20;;;;;;;;;;5055375;28;20059;-63
2022/01/23 05:01:14;;;;;;;5.68;3.92;;;5.70;99.90;;;;;;5038247;28;20494;-63
2022/01/23 05:06:27;;;;;;;7.10;4.03;;;5.90;99.90;;;;;;5054571;28;20037;-63
2022/01/23 05:08:53;;;;;;;10.50;4.63;;;6.00;99.90;;;;;;5038255;28;20406;-64
2022/01/23 05:11:19;;;;;;;6.22;3.53;;;5.80;99.90;;;;;;5055939;28;20049;-63
2022/01/23 05:13:45;;;;;;;7.82;3.70;;;5.90;99.90;;;;;;5038285;28;20041;-64
2022/01/23 05:16:11;;;;;;;8.07;4.00;;;5.80;99.90;;;;;;5056535;28;20115;-63
2022/01/23 05:18:39;;;;;;;7.05;3.67;;;6.00;99.90;;;;;;5075542;28;20037;-63
2022/01/23 05:23:51;;;;;;;9.02;3.65;;;5.90;99.90;;;;;;5052431;28;20040;-63
2022/01/23 05:26:17;;;;;;;6.65;3.83;;;5.70;99.90;;;;;;5072192;28;20371;-63
2022/01/23 05:28:42;;;;;;;5.00;3.63;;;5.80;99.90;;;;;;5055083;28;20090;-64
2022/01/23 05:31:08;;;;;;;4.75;3.42;;;5.70;99.90;;;;;;5068888;28;20040;-64
2022/01/23 05:33:33;;;;;;;8.73;3.42;;;5.90;99.90;;;;;;5078255;28;20035;-63
2022/01/23 05:35:59;;;;;;;5.30;3.38;;;;;;;;;;5062986;28;20048;-63
2022/01/23 05:38:25;;;;;;;6.30;3.63;;;5.80;99.90;;;;;;5070824;28;20055;-63
2022/01/23 05:40:56;;;;;;;6.20;3.92;;;5.80;99.90;;;;;;5063298;28;20090;-64
2022/01/23 05:43:22;;;;;;;8.00;3.28;;;5.80;99.90;;;;;;5055390;28;20041;-63
2022/01/23 05:45:49;;;;;;;7.72;3.72;;;5.90;99.90;;;;;;5054977;28;20094;-63
2022/01/23 05:48:15;;;;;;;8.20;3.75;;;5.80;99.90;;;;;;5055058;28;20513;-63
2022/01/23 05:50:41;;;;;;;5.85;4.07;;;5.80;99.90;;;;;;5054931;28;20047;-63
2022/01/23 05:53:07;;;;;;;5.97;3.92;;;5.90;99.90;;;;;;5073146;28;20036;-64
2022/01/23 05:55:32;;;;;;;7.10;3.85;;;5.80;99.90;;;;;;5055193;28;20041;-63
2022/01/23 05:57:58;;;;;;;5.97;3.78;;;5.90;99.90;;;;;;5057449;28;20081;-63
2022/01/23 06:00:24;;;;;;;9.18;4.72;;;5.80;99.90;;;;;;5057373;28;20561;-63
2022/01/23 06:02:49;;;;;;;7.72;4.10;;;5.90;99.90;;;;;;5085839;28;20043;-63
2022/01/23 06:05:15;;;;;;;5.95;3.90;;;5.80;99.90;;;;;;5072539;28;20402;-63
2022/01/23 06:07:42;;;;;;;8.32;3.88;;;5.80;99.90;;;;;;5043368;28;20037;-64
2022/01/23 06:10:15;;;;;;;7.45;3.65;;;5.80;99.90;;;;;;5034890;28;20056;-63
2022/01/23 06:12:42;;;;;;;6.88;3.85;;;5.80;99.90;;;;;;5052560;28;20561;-64
2022/01/23 06:15:08;;;;;;;4.80;3.55;;;5.70;99.90;;;;;;5052850;28;20171;-63
2022/01/23 06:17:34;;;;;;;6.22;3.55;;;5.70;99.90;;;;;;5045149;28;20051;-63
2022/01/23 06:19:59;;;;;;;5.03;2.85;;;5.80;99.90;;;;;;5065446;28;20051;-63
2022/01/23 06:22:25;;;;;;;5.72;3.67;;;5.90;99.90;;;;;;5062483;28;20040;-64
2022/01/23 06:24:50;;;;;;;5.32;3.22;;;5.70;99.90;;;;;;5059926;28;20126;-63
2022/01/23 06:27:16;;;;;;;5.80;3.55;;;5.70;99.90;;;;;;5072732;28;20101;-63
2022/01/23 06:29:45;;;;;;;7.25;3.90;;;5.70;99.90;;;;;;5071981;28;20545;-64
2022/01/23 06:32:12;;;;;;;4.65;3.63;;;5.80;99.90;;;;;;5068817;28;20041;-64
2022/01/23 06:34:38;;;;;;;6.00;3.40;;;;;;;;;;5050539;28;20128;-63
2022/01/23 06:37:04;;;;;;;6.43;3.65;;;;;;;;;;5073751;28;20075;-64
2022/01/23 06:39:31;;;;;;;5.22;3.55;;;5.70;99.90;;;;;;5058553;28;20512;-65
2022/01/23 06:41:57;;;;;;;8.32;3.92;;;;;;;;;;5074879;28;20060;-64
2022/01/23 06:44:22;;;;;;;6.28;3.83;;;5.80;99.90;;;;;;5058411;28;20055;-64
2022/01/23 06:46:48;;;;;;;5.43;4.20;;;5.80;99.90;;;;;;5056611;28;20037;-64
2022/01/23 06:49:14;;;;;;;4.78;3.70;;;5.80;99.90;;;;;;5074963;28;20097;-63
2022/01/23 06:51:42;;;;;;;7.70;3.60;;;5.80;99.90;;;;;;5070127;28;20506;-64
2022/01/23 06:54:08;;;;;;;8.68;3.70;;;5.80;99.90;;;;;;5055212;28;20040;-63
2022/01/23 06:56:34;;;;;;;8.30;3.83;;;;;;;;;;5049821;28;20485;-64
2022/01/23 06:59:00;;;;;;;6.38;4.13;;;;;;;;;;5047912;28;20572;-64
2022/01/23 07:01:26;;;;;;;8.32;4.18;;;5.90;99.90;;;;;;5051166;28;20040;-64
2022/01/23 07:03:51;;;;;;;6.82;3.80;;;6.00;99.90;;;;;;5051023;28;20550;-64
2022/01/23 07:06:17;;;;;;;6.57;3.97;;;5.90;99.90;;;;;;5066391;28;20501;-63
2022/01/23 07:08:43;;;;;;;6.18;3.72;;;5.80;99.90;;;;;;5064973;28;20076;-64
2022/01/23 07:11:09;;;;;;;6.60;4.10;;;;;;;;;;5048004;28;20514;-63
2022/01/23 07:13:35;;;;;;;7.82;4.38;;;;;;;;;;5029643;28;20045;-63
2022/01/23 07:16:02;;;;;;;5.15;3.50;;;5.90;99.90;;;;;;5030011;28;20052;-63
2022/01/23 07:18:28;;;;;;;7.78;4.25;;;5.90;99.90;;;;;;5062923;28;20083;-64
2022/01/23 07:20:54;;;;;;;11.50;4.00;;;;;;;;;;5069720;28;20127;-63
2022/01/23 07:23:22;;;;;;;6.82;4.35;;;;;;;;;;5066592;28;20123;-64
2022/01/23 07:25:49;;;;;;;8.07;3.90;;;;;;;;;;5058125;28;20446;-64
2022/01/23 07:28:18;;;;;;;9.43;4.20;;;;;;;;;;5070268;28;20052;-63
2022/01/23 07:33:10;;;;;;;6.88;4.10;;;;;;;;;;5063786;28;20040;-63
2022/01/23 07:35:35;;;;;;;9.15;4.35;;;5.90;99.90;;;;;;5057949;28;20539;-63
2022/01/23 07:38:01;;;;;;;8.80;4.20;;;6.00;99.90;;;;;;5087117;28;20036;-63
2022/01/23 07:40:26;;;;;;;6.93;3.88;;;5.80;99.90;;;;;;5088819;28;20055;-63
2022/01/23 07:42:52;;;;;;;7.07;4.20;;;5.80;99.90;;;;;;5075306;28;20545;-61
2022/01/23 07:45:18;;;;;;;8.80;4.28;;;5.90;99.90;;;;;;5067095;28;20032;-62
2022/01/23 07:47:44;;;;;;;8.98;4.00;;;5.80;99.90;;;;;;5088841;28;20059;-62
2022/01/23 07:50:11;;;;;;;6.40;4.53;;;5.90;99.90;;;;;;5090168;28;20537;-62
2022/01/23 07:52:38;;;;;;;8.52;4.47;;;5.90;99.90;;;;;;5088732;28;20036;-62
2022/01/23 07:55:13;;;;;;;7.50;4.53;;;5.80;99.90;;;;;;5070143;28;20101;-63
2022/01/23 07:57:40;;;;;;;7.30;4.47;;;5.80;99.90;;;;;;5061443;28;20040;-63
2022/01/23 08:00:07;;;;;;;9.82;4.47;;;5.80;99.90;;;;;;5065975;28;20048;-63
2022/01/23 08:02:34;;;;;;;8.30;4.65;;;6.10;99.90;;;;;;5089966;28;20050;-62
2022/01/23 08:04:59;;;;;;;8.05;4.22;;;5.90;99.90;;;;;;5089650;28;20035;-62
2022/01/23 08:09:56;;;;;;;7.13;4.10;;;;;;;;;;5062895;28;20053;-63
2022/01/23 08:12:25;;;;;;;7.20;4.20;;;;;;;;;;5057202;28;20060;-62
2022/01/23 08:14:51;;;;;;;5.93;3.55;;;6.20;99.90;;;;;;5089542;28;20055;-63
2022/01/23 08:17:19;;;;;;;5.18;3.90;;;;;;;;;;5063984;28;20063;-63
2022/01/23 08:19:45;;;;;;;7.18;4.15;;;5.90;99.90;;;;;;5082749;28;20063;-64
2022/01/23 08:22:11;;;;;;;11.82;4.18;;;;;;;;;;5056847;28;20052;-64
2022/01/23 08:24:37;;;;;;;6.20;4.30;;;;;;;;;;5082460;28;20040;-62
2022/01/23 08:27:03;;;;;;;6.13;3.95;;;5.90;99.90;;;;;;5077947;28;20036;-63
2022/01/23 08:29:28;;;;;;;6.72;3.75;;;5.90;99.90;;;;;;5057790;28;20044;-63
2022/01/23 08:31:54;;;;;;;6.35;3.38;;;5.90;99.90;;;;;;5065014;28;20044;-61
2022/01/23 08:34:19;;;;;;;5.30;3.67;;;6.00;99.90;;;;;;5068937;28;20051;-62
2022/01/23 08:36:45;;;;;;;7.68;4.57;;;6.20;99.90;;;;;;5044999;28;20086;-62
2022/01/23 08:39:11;;;;;;;6.80;3.80;;;6.00;99.90;;;;;;5044292;28;20040;-61
2022/01/23 08:41:49;;;;;;;5.00;3.58;;;;;;;;;;5070065;28;20079;-60
2022/01/23 08:44:23;;;;;;;8.40;4.30;;;6.00;99.90;;;;;;5070378;28;20514;-60
2022/01/23 08:46:49;;;;;;;6.47;3.95;;;;;;;;;;5052893;28;20124;-61
2022/01/23 08:49:17;;;;;;;5.15;3.42;;;6.10;99.90;;;;;;5052304;28;20475;-61
2022/01/23 08:51:43;;;;;;;5.18;3.20;;;;;;;;;;5072587;28;20393;-61
2022/01/23 08:54:09;;;;;;;7.72;4.40;;;6.20;99.90;;;;;;5082951;28;20036;-62
2022/01/23 08:56:35;;;;;;;5.80;3.67;;;6.10;99.90;;;;;;5085731;28;20508;-61
2022/01/23 08:59:01;;;;;;;5.47;3.80;;;;;;;;;;5087828;28;20032;-61
2022/01/23 09:01:28;;;;;;;7.00;4.63;;;;;;;;;;5082722;28;20036;-62
2022/01/23 09:03:54;;;;;;;5.63;3.40;;;;;;;;;;5090209;28;20040;-63
2022/01/23 09:06:20;;;;;;;5.53;3.70;;;;;;;;;;5084850;28;20532;-62
2022/01/23 09:08:46;;;;;;;5.00;3.40;;;6.20;99.90;;;;;;5083568;28;20044;-61
2022/01/23 09:11:25;;;;;;;5.63;3.80;;;6.30;99.90;;;;;;5087437;28;20563;-64
2022/01/23 09:13:55;;;;;;;5.53;3.20;;;6.20;99.90;;;;;;5067960;28;20040;-64
2022/01/23 09:16:21;;;;;;;5.32;3.13;;;;;;;;;;5089659;28;20051;-65
2022/01/23 09:18:47;;;;;;;9.32;3.85;;;6.40;99.90;;;;;;5087732;28;20161;-64
2022/01/23 09:21:12;;;;;;;5.70;3.00;;;6.40;99.90;;;;;;5070289;28;20039;-65
2022/01/23 09:23:38;;;;;;;5.20;3.38;;;6.30;99.90;;;;;;5085780;28;20032;-61
2022/01/23 09:26:08;;;;;;;5.38;3.22;;;6.40;99.90;;;;;;5073125;28;20037;-61
2022/01/23 09:28:34;;;;;;;5.43;3.35;;;;;;;;;;5076664;28;20498;-61
2022/01/23 09:31:00;;;;;;;4.68;3.13;;;5.10;99.90;;;;;;5071333;28;20036;-62
2022/01/23 09:33:27;;;;;;;10.75;3.53;;;6.60;99.90;;;;;;5076470;28;20035;-62
2022/01/23 09:35:53;;;;;;;4.70;2.63;;;6.50;99.90;;;;;;5088212;28;20048;-64
2022/01/23 09:38:19;;;;;;;5.63;3.83;;;6.50;99.90;;;;;;5089787;28;20119;-63
2022/01/23 09:40:47;;;;;;;6.00;3.78;;;6.60;99.90;;;;;;5072132;28;20115;-63
2022/01/23 09:43:17;;;;;;;5.43;2.67;;;6.70;99.90;;;;;;5059860;28;20063;-63
2022/01/23 09:45:46;;;;;;;5.40;3.50;;;6.60;99.90;;;;;;5071966;28;20040;-63
2022/01/23 09:48:12;;;;;;;9.15;3.83;;;6.60;99.90;;;;;;5054292;28;20051;-62
2022/01/23 09:50:38;;;;;;;7.55;3.50;;;6.60;99.90;;;;;;5054663;28;20032;-63
2022/01/23 09:53:04;;;;;;;8.32;4.38;;;;;;;;;;5051700;28;20033;-63
2022/01/23 09:55:31;;;;;;;6.03;3.60;;;6.60;99.90;;;;;;5063161;28;20048;-64
2022/01/23 09:57:57;;;;;;;5.53;3.85;;;6.70;99.90;;;;;;5053586;28;20041;-64
2022/01/23 10:00:25;;;;;;;9.23;3.47;;;;;;;;;;5056031;28;20051;-62
2022/01/23 10:02:51;;;;;;;8.68;4.03;;;6.80;99.90;;;;;;5059101;28;20058;-63
2022/01/23 10:05:17;;;;;;;5.75;3.88;;;6.80;99.90;;;;;;5071525;28;20036;-64
2022/01/23 10:07:44;;;;;;;5.55;4.03;;;6.80;99.90;;;;;;5040069;28;20045;-63
2022/01/23 10:10:19;;;;;;;7.30;4.32;;;6.80;99.90;;;;;;5034132;28;20044;-63
2022/01/23 10:12:50;;;;;;;6.20;4.72;;;6.90;99.90;;;;;;5071226;28;20056;-63
2022/01/23 10:15:16;;;;;;;6.35;3.63;;;6.90;99.90;;;;;;5061744;28;20037;-67
2022/01/23 10:17:42;;;;;;;9.90;4.00;;;6.80;99.90;;;;;;5053206;28;20094;-63
2022/01/23 10:20:09;;;;;;;10.75;3.85;;;6.80;99.90;;;;;;5071079;28;20456;-63
2022/01/23 10:22:36;;;;;;;6.22;3.83;;;;;;;;;;5066969;28;20094;-64
2022/01/23 10:25:11;;;;;;;6.57;3.80;;;7.00;99.90;;;;;;5055564;28;20044;-64
2022/01/23 10:28:07;;;;;;;6.72;4.03;;;7.00;99.90;;;;;;5053537;28;20091;-63
2022/01/23 10:30:43;;;;;;;7.95;4.15;;;7.00;99.90;;;;;;5055358;28;20040;-62
2022/01/23 10:33:36;;;;;;;6.53;4.18;;;7.20;99.90;;;;;;5063280;28;20047;-62
2022/01/23 10:36:08;;;;;;;6.20;3.67;;;7.00;99.90;;;;;;5069863;28;20087;-63
2022/01/23 10:38:57;;;;;;;6.47;4.28;;;7.10;99.90;;;;;;5088253;28;20075;-61
2022/01/23 10:49:47;;;;;;;11.13;5.10;;;7.20;99.90;;;;;;5072075;28;20062;-62
2022/01/23 10:52:34;;;;;;;8.57;5.43;;;7.30;99.90;;;;;;5071876;28;20040;-62
2022/01/23 10:55:01;;;;;;;8.88;6.15;;;7.10;99.90;;;;;;5091981;28;20028;-62
2022/01/23 10:57:48;;;;;;;10.23;5.55;;;7.30;99.90;;;;;;5088515;28;20036;-63
2022/01/23 11:00:34;;;;;;;11.93;6.00;;;7.10;99.90;;;;;;5051006;28;20150;-62
2022/01/23 11:03:11;;;;;;;11.10;6.85;;;;;;;;;;5063932;28;20432;-63
2022/01/23 11:05:39;;;;;;;12.48;6.05;;;;;;;;;;5071762;28;20119;-62
2022/01/23 11:08:27;;;;;;;11.75;6.63;;;7.30;99.90;;;;;;5062460;28;20045;-62
2022/01/23 11:11:05;;;;;;;10.30;5.80;;;7.10;99.90;;;;;;5074410;28;20185;-62
2022/01/23 11:19:39;;;;;;;11.45;7.13;;;7.20;99.90;;;;;;5074256;28;20049;-62
2022/01/23 11:22:06;;;;;;;11.70;6.93;;;7.20;99.90;;;;;;5056263;28;20075;-62
2022/01/23 11:24:37;;;;;;;9.32;5.40;;;7.20;99.90;;;;;;5083227;28;20440;-62
2022/01/23 11:27:04;;;;;;;9.63;4.82;;;7.30;99.90;;;;;;5071034;28;20573;-62
2022/01/23 11:29:31;;;;;;;11.30;6.00;;;;;;;;;;5054598;28;20045;-62
2022/01/23 11:31:58;;;;;;;8.38;5.68;;;7.40;99.90;;;;;;5058774;28;20040;-61
2022/01/23 11:34:26;;;;;;;7.05;4.85;;;7.40;99.90;;;;;;5057373;28;20083;-61
2022/01/23 11:36:52;;;;;;;7.63;4.50;;;7.40;99.90;;;;;;5064927;28;20044;-61
2022/01/23 11:39:43;;;;;;;7.90;5.03;;;7.40;99.90;;;;;;5082421;28;20039;-61
2022/01/23 11:51:03;;;;;;;6.55;4.00;;;7.60;99.90;;;;;;5093975;28;20076;-61
2022/01/23 11:56:25;;;;;;;4.82;3.42;;;7.60;99.90;;;;;;5073275;28;20390;-61
2022/01/23 11:59:13;;;;;;;5.97;3.72;;;7.50;99.90;;;;;;5067672;28;20043;-60
2022/01/23 12:01:41;;;;;;;5.15;3.30;;;7.60;99.90;;;;;;5055643;28;20044;-61
2022/01/23 12:04:06;;;;;;;4.57;3.10;;;7.60;99.90;;;;;;5055699;28;20429;-62
2022/01/23 12:06:36;;;;;;;4.70;3.08;;;7.60;99.90;;;;;;5055419;28;20052;-61
2022/01/23 12:09:11;;;;;;;5.32;2.63;;;7.70;99.90;;;;;;5055213;28;20052;-61
2022/01/23 12:11:46;;;;;;;2.75;1.98;;;;;;;;;;5081647;28;20411;-61
2022/01/23 12:16:51;;;;;;;4.68;1.77;;;7.70;99.90;;;;;;5055048;28;20052;-62
2022/01/23 12:19:24;;;;;;;2.33;1.77;;;7.70;99.90;;;;;;5069084;28;20039;-63
2022/01/23 12:21:54;;;;;;;3.10;1.88;;;7.80;99.90;;;;;;5064415;28;20516;-62
2022/01/23 12:24:22;;;;;;;2.08;1.50;;;7.70;99.90;;;;;;5051550;28;20055;-62
2022/01/23 12:26:49;;;;;;;2.25;1.70;;;7.60;99.90;;;;;;5084961;28;20093;-61
2022/01/23 12:29:27;;;;;;;3.60;1.63;;;7.70;99.90;;;;;;5059132;28;20067;-63
2022/01/23 12:32:19;;;;;;;3.25;1.40;;;8.00;99.90;;;;;;5076695;28;20043;-61
2022/01/23 12:34:46;;;;;;;1.65;1.30;;;;;;;;;;5075253;28;20059;-62
2022/01/23 12:37:12;;;;;;;4.15;1.60;;;7.80;99.90;;;;;;5048363;28;20032;-61
2022/01/23 12:39:37;;;;;;;1.70;1.45;;;7.60;99.90;;;;;;5068646;28;20429;-62
2022/01/23 12:42:05;;;;;;;2.40;1.52;;;7.60;99.90;;;;;;5065344;28;20049;-62
2022/01/23 12:44:37;;;;;;;1.88;1.25;;;8.00;99.90;;;;;;5066257;28;20106;-61
2022/01/23 12:47:16;;;;;;;2.50;1.85;;;7.80;99.90;;;;;;5065155;28;20075;-61
2022/01/23 12:49:52;;;;;;;3.65;1.45;;;7.80;99.90;;;;;;5088697;28;20036;-61
2022/01/23 12:52:20;;;;;;;5.40;1.85;;;7.70;99.90;;;;;;5055787;28;20037;-61
2022/01/23 12:54:55;;;;;;;7.60;2.42;;;7.70;99.90;;;;;;5058492;28;20517;-61
2022/01/23 12:57:25;;;;;;;1.92;1.40;;;7.80;99.90;;;;;;5054466;28;20049;-61
2022/01/23 12:59:53;;;;;;;3.92;1.63;;;7.80;99.90;;;;;;5071422;28;20055;-63
2022/01/23 13:02:21;;;;;;;3.67;1.90;;;7.80;99.90;;;;;;5072655;28;20076;-63
2022/01/23 13:04:51;;;;;;;4.13;2.17;;;7.70;99.90;;;;;;5070873;28;20083;-64
2022/01/23 13:10:21;;;;;;;1.90;1.70;;;7.70;99.90;;;;;;5041110;28;20036;-64
2022/01/23 13:32:19;;;;;;;2.87;1.70;;;7.80;99.90;;;;;;5053624;28;20044;-64
2022/01/23 13:34:23;;;;;;;2.75;1.70;;;;;;;;;;5069272;28;20041;-65
2022/01/23 13:36:58;;;;;;;3.08;1.92;;;7.70;99.90;;;;;;5071719;28;20458;-65
2022/01/23 13:39:52;;;;;;;4.13;2.27;;;7.60;99.90;;;;;;5053610;28;20055;-63
2022/01/23 14:02:34;;;;;;;2.78;2.20;;;7.50;99.90;;;;;;5049303;28;20437;-63
2022/01/23 14:05:03;;;;;;;4.28;2.53;;;7.70;99.90;;;;;;5075692;28;20123;-63
2022/01/23 14:07:29;;;;;;;4.88;3.00;;;7.50;99.90;;;;;;5057718;28;20498;-63
2022/01/23 14:09:58;;;;;;;2.78;2.30;;;7.40;99.90;;;;;;5075541;28;20058;-64
2022/01/23 14:12:26;;;;;;;4.43;2.45;;;7.50;99.90;;;;;;5075490;28;20052;-63
2022/01/23 14:15:04;;;;;;;3.80;2.20;;;7.60;99.90;;;;;;5074294;28;20049;-64
2022/01/23 14:17:35;;;;;;;3.75;2.35;;;7.50;99.90;;;;;;5059953;28;20132;-63
2022/01/23 14:20:16;;;;;;;5.13;2.85;;;7.50;99.90;;;;;;5055491;28;20098;-63
2022/01/23 14:22:47;;;;;;;4.50;2.45;;;7.50;99.90;;;;;;5054150;28;20141;-64
2022/01/23 14:25:21;;;;;;;4.10;2.78;;;7.60;99.90;;;;;;5055711;28;20041;-63
2022/01/23 14:28:10;;;;;;;4.00;2.50;;;7.70;99.90;;;;;;5055345;28;20128;-63
2022/01/23 14:30:45;;;;;;;3.65;2.90;;;7.40;99.90;;;;;;5057765;28;20299;-64
2022/01/23 14:33:32;;;;;;;4.18;3.20;;;7.60;99.90;;;;;;5057522;28;20102;-63
2022/01/23 14:35:58;;;;;;;5.13;2.97;;;;;;;;;;5075033;28;20086;-65
2022/01/23 14:38:27;;;;;;;3.58;3.00;;;7.60;99.90;;;;;;5057299;28;20494;-65
2022/01/23 14:40:59;;;;;;;4.63;2.65;;;7.40;99.90;;;;;;5057217;28;20035;-64
2022/01/23 14:43:40;;;;;;;3.95;3.17;;;7.40;99.90;;;;;;5075022;28;20517;-64
2022/01/23 14:46:10;;;;;;;5.35;2.90;;;7.30;99.90;;;;;;5080258;28;20047;-64
2022/01/23 14:48:41;;;;;;;3.08;2.53;;;7.50;99.90;;;;;;5088860;28;20085;-64
2022/01/23 14:51:08;;;;;;;4.25;2.78;;;7.40;99.90;;;;;;5057236;28;20040;-64
2022/01/23 14:53:37;;;;;;;3.72;2.13;;;7.50;99.90;;;;;;5088263;28;20041;-64
2022/01/23 14:56:04;;;;;;;8.55;2.92;;;7.30;99.90;;;;;;5056005;28;20032;-65
2022/01/23 14:58:32;;;;;;;2.92;2.42;;;7.30;99.90;;;;;;5073214;28;20040;-64
2022/01/23 15:00:58;;;;;;;6.05;2.58;;;7.40;99.90;;;;;;5074292;28;20188;-64
2022/01/23 15:03:26;;;;;;;3.13;2.28;;;7.30;99.90;;;;;;5062173;28;20079;-64
2022/01/23 15:05:53;;;;;;;5.15;3.00;;;7.30;99.90;;;;;;5073757;28;20111;-63
2022/01/23 15:08:22;;;;;;;3.22;2.25;;;7.40;99.90;;;;;;5056670;28;20064;-62
2022/01/23 15:10:50;;;;;;;5.90;2.58;;;7.40;99.90;;;;;;5069654;28;20044;-63
2022/01/23 15:13:19;;;;;;;3.20;2.35;;;7.30;99.90;;;;;;5070898;28;20040;-63
2022/01/23 15:15:46;;;;;;;3.15;2.30;;;7.40;99.90;;;;;;5082928;28;20044;-63
2022/01/23 15:18:13;;;;;;;5.10;2.65;;;7.30;99.90;;;;;;5084623;28;20075;-63
2022/01/23 15:20:39;;;;;;;4.75;2.38;;;7.20;99.90;;;;;;5062468;28;20461;-62
2022/01/23 15:23:05;;;;;;;3.70;2.65;;;7.30;99.90;;;;;;5063039;28;20071;-62
2022/01/23 15:25:31;;;;;;;3.05;2.75;;;7.30;99.90;;;;;;5082745;28;20165;-62
2022/01/23 15:27:57;;;;;;;4.25;2.03;;;7.30;99.90;;;;;;5082323;28;20047;-62
2022/01/23 15:30:24;;;;;;;3.47;2.65;;;;;;;;;;5072866;28;20394;-65
2022/01/23 15:32:51;;;;;;;2.72;2.28;;;7.20;99.90;;;;;;5090358;28;20040;-65
2022/01/23 15:35:17;;;;;;;3.28;2.22;;;7.30;99.90;;;;;;5074388;28;20086;-64
2022/01/23 15:37:43;;;;;;;2.15;1.95;;;7.20;99.90;;;;;;5064864;28;20080;-64
2022/01/23 15:40:11;;;;;;;2.92;2.03;;;7.20;99.90;;;;;;5063973;28;20063;-64
2022/01/23 15:42:37;;;;;;;4.53;2.22;;;7.50;99.90;;;;;;5063076;28;20052;-63
2022/01/23 15:45:05;;;;;;;3.45;2.40;;;7.30;99.90;;;;;;5074105;28;20037;-62
2022/01/23 15:47:31;;;;;;;5.47;2.40;;;;;;;;;;5090812;28;20039;-63
2022/01/23 15:49:57;;;;;;;3.65;2.72;;;7.20;99.90;;;;;;5090806;28;20040;-63
2022/01/23 15:52:22;;;;;;;4.47;2.75;;;7.10;99.90;;;;;;5092886;28;20393;-61
2022/01/23 15:54:48;;;;;;;3.42;2.33;;;7.10;99.90;;;;;;5093404;28;20088;-62
2022/01/23 15:57:15;;;;;;;2.60;2.15;;;7.10;99.90;;;;;;5094081;28;20047;-61
2022/01/23 15:59:41;;;;;;;5.07;2.25;;;7.20;99.90;;;;;;5081175;28;20052;-61
2022/01/23 16:02:09;;;;;;;3.40;2.50;;;7.20;99.90;;;;;;5054660;28;20051;-63
2022/01/23 16:04:37;;;;;;;4.47;3.00;;;7.20;99.90;;;;;;5073098;28;20037;-62
2022/01/23 16:07:09;;;;;;;3.47;2.47;;;7.10;99.90;;;;;;5055324;28;20098;-62
2022/01/23 16:09:35;;;;;;;3.15;2.15;;;7.20;99.90;;;;;;5072986;28;20522;-62
2022/01/23 16:12:01;;;;;;;4.45;2.53;;;7.10;99.90;;;;;;5073146;28;20080;-62
2022/01/23 16:14:27;;;;;;;4.15;2.53;;;7.10;99.90;;;;;;5072026;28;20146;-63
2022/01/23 16:16:53;;;;;;;4.90;2.92;;;7.10;99.90;;;;;;5072527;28;20061;-63
2022/01/23 16:19:20;;;;;;;3.85;2.53;;;;;;;;;;5054568;28;20050;-63
2022/01/23 16:21:46;;;;;;;4.38;3.38;;;7.20;99.90;;;;;;5077138;28;20045;-64
2022/01/23 16:24:13;;;;;;;3.63;2.75;;;6.90;99.90;;;;;;5071087;28;20037;-63
2022/01/23 16:26:38;;;;;;;3.80;2.08;;;7.00;99.90;;;;;;5070516;28;20036;-64
2022/01/23 16:29:05;;;;;;;4.00;2.75;;;6.90;99.90;;;;;;5064854;28;20081;-63
2022/01/23 16:31:31;;;;;;;3.83;2.70;;;7.00;99.90;;;;;;5051923;28;20048;-63
2022/01/23 16:33:57;;;;;;;3.28;2.40;;;6.90;99.90;;;;;;5073542;28;20025;-64
2022/01/23 16:36:25;;;;;;;2.97;2.22;;;6.90;99.90;;;;;;5060955;28;20029;-63
2022/01/23 16:38:50;;;;;;;4.03;2.50;;;7.10;99.90;;;;;;5060652;28;20751;-64
2022/01/23 16:41:16;;;;;;;4.10;2.28;;;6.90;99.90;;;;;;5054639;28;20052;-64
2022/01/23 16:43:44;;;;;;;3.50;2.38;;;7.00;99.90;;;;;;5055999;28;20036;-65
2022/01/23 16:46:10;;;;;;;4.50;2.75;;;7.00;99.90;;;;;;5072824;28;20119;-64
2022/01/23 16:48:37;;;;;;;4.78;2.67;;;7.10;99.90;;;;;;5072501;28;20036;-64
2022/01/23 16:51:04;;;;;;;5.00;2.65;;;7.10;99.90;;;;;;5064729;28;20513;-65
2022/01/23 16:53:30;;;;;;;3.67;2.67;;;7.00;99.90;;;;;;5070634;28;20043;-64
2022/01/23 16:55:57;;;;;;;4.53;3.13;;;7.10;99.90;;;;;;5072499;28;20498;-64
2022/01/23 16:58:32;;;;;;;5.45;3.00;;;7.10;99.90;;;;;;5072679;28;20097;-64
2022/01/23 17:00:58;;;;;;;2.65;2.45;;;7.00;99.90;;;;;;5076260;28;20398;-64
2022/01/23 17:03:24;;;;;;;4.50;2.80;;;6.90;99.90;;;;;;5062463;28;20036;-64